sensor_id;sensor_type;location;lat;lon;timestamp;P1;durP1;ratioP1;P2;durP2;ratioP2
1471;SDS011;963;42.644;23.336;2023-08-21T00:00:02;10.83;;;6.30;;
1471;SDS011;963;42.644;23.336;2023-08-21T00:02:29;9.33;;;7.10;;
1471;SDS011;963;42.644;23.336;2023-08-21T00:04:54;11.77;;;7.30;;
1471;SDS011;963;42.644;23.336;2023-08-21T00:07:20;7.40;;;6.50;;
1471;SDS011;963;42.644;23.336;2023-08-21T00:09:45;6.70;;;6.00;;
1471;SDS011;963;42.644;23.336;2023-08-21T00:12:11;8.20;;;6.53;;
1471;SDS011;963;42.644;23.336;2023-08-21T00:14:36;7.43;;;6.73;;
1471;SDS011;963;42.644;23.336;2023-08-21T00:17:02;8.20;;;6.03;;
1471;SDS011;963;42.644;23.336;2023-08-21T00:19:28;8.63;;;6.50;;
1471;SDS011;963;42.644;23.336;2023-08-21T00:21:54;8.90;;;6.00;;
1471;SDS011;963;42.644;23.336;2023-08-21T00:24:20;6.80;;;6.10;;
1471;SDS011;963;42.644;23.336;2023-08-21T00:26:45;9.10;;;7.20;;
1471;SDS011;963;42.644;23.336;2023-08-21T00:29:11;7.67;;;6.10;;
1471;SDS011;963;42.644;23.336;2023-08-21T00:31:36;8.30;;;6.13;;
1471;SDS011;963;42.644;23.336;2023-08-21T00:34:01;6.40;;;5.70;;
1471;SDS011;963;42.644;23.336;2023-08-21T00:36:27;7.00;;;6.10;;
1471;SDS011;963;42.644;23.336;2023-08-21T00:38:52;7.13;;;5.77;;
1471;SDS011;963;42.644;23.336;2023-08-21T00:41:17;7.67;;;6.23;;
1471;SDS011;963;42.644;23.336;2023-08-21T00:43:43;8.90;;;6.63;;
1471;SDS011;963;42.644;23.336;2023-08-21T00:46:08;6.90;;;6.00;;
1471;SDS011;963;42.644;23.336;2023-08-21T00:48:35;6.70;;;6.00;;
1471;SDS011;963;42.644;23.336;2023-08-21T00:51:01;7.53;;;6.03;;
1471;SDS011;963;42.644;23.336;2023-08-21T00:53:26;11.73;;;6.63;;
1471;SDS011;963;42.644;23.336;2023-08-21T00:55:52;7.40;;;6.43;;
1471;SDS011;963;42.644;23.336;2023-08-21T00:58:17;7.13;;;6.00;;
1471;SDS011;963;42.644;23.336;2023-08-21T01:00:44;6.50;;;5.90;;
1471;SDS011;963;42.644;23.336;2023-08-21T01:03:12;7.33;;;6.60;;
1471;SDS011;963;42.644;23.336;2023-08-21T01:05:38;10.03;;;6.13;;
1471;SDS011;963;42.644;23.336;2023-08-21T01:08:10;7.60;;;6.23;;
1471;SDS011;963;42.644;23.336;2023-08-21T01:16:25;7.40;;;5.90;;
1471;SDS011;963;42.644;23.336;2023-08-21T01:18:53;8.63;;;6.63;;
1471;SDS011;963;42.644;23.336;2023-08-21T01:21:19;8.07;;;6.03;;
1471;SDS011;963;42.644;23.336;2023-08-21T01:23:45;6.53;;;5.83;;
1471;SDS011;963;42.644;23.336;2023-08-21T01:26:10;6.70;;;6.10;;
1471;SDS011;963;42.644;23.336;2023-08-21T01:28:36;6.50;;;5.90;;
1471;SDS011;963;42.644;23.336;2023-08-21T01:31:07;8.03;;;6.30;;
1471;SDS011;963;42.644;23.336;2023-08-21T01:33:42;7.50;;;5.67;;
1471;SDS011;963;42.644;23.336;2023-08-21T01:36:12;9.60;;;6.57;;
1471;SDS011;963;42.644;23.336;2023-08-21T01:38:38;7.10;;;6.30;;
1471;SDS011;963;42.644;23.336;2023-08-21T01:41:03;6.97;;;6.10;;
1471;SDS011;963;42.644;23.336;2023-08-21T01:43:29;7.23;;;6.20;;
1471;SDS011;963;42.644;23.336;2023-08-21T01:45:55;7.40;;;6.30;;
1471;SDS011;963;42.644;23.336;2023-08-21T01:48:20;7.10;;;6.40;;
1471;SDS011;963;42.644;23.336;2023-08-21T01:50:46;7.30;;;6.60;;
1471;SDS011;963;42.644;23.336;2023-08-21T01:53:11;7.90;;;5.73;;
1471;SDS011;963;42.644;23.336;2023-08-21T01:55:36;7.00;;;6.20;;
1471;SDS011;963;42.644;23.336;2023-08-21T01:58:02;7.13;;;6.03;;
1471;SDS011;963;42.644;23.336;2023-08-21T02:00:27;10.30;;;5.40;;
1471;SDS011;963;42.644;23.336;2023-08-21T02:02:53;9.17;;;5.97;;
1471;SDS011;963;42.644;23.336;2023-08-21T02:05:18;13.43;;;7.03;;
1471;SDS011;963;42.644;23.336;2023-08-21T02:07:43;6.60;;;5.57;;
1471;SDS011;963;42.644;23.336;2023-08-21T02:10:09;10.23;;;6.37;;
1471;SDS011;963;42.644;23.336;2023-08-21T02:12:35;7.43;;;6.17;;
1471;SDS011;963;42.644;23.336;2023-08-21T02:15:00;7.47;;;5.97;;
1471;SDS011;963;42.644;23.336;2023-08-21T02:17:26;10.40;;;6.93;;
1471;SDS011;963;42.644;23.336;2023-08-21T02:19:51;6.80;;;5.60;;
1471;SDS011;963;42.644;23.336;2023-08-21T02:22:17;6.73;;;6.00;;
1471;SDS011;963;42.644;23.336;2023-08-21T02:24:42;7.13;;;6.33;;
1471;SDS011;963;42.644;23.336;2023-08-21T02:27:08;7.50;;;5.83;;
1471;SDS011;963;42.644;23.336;2023-08-21T02:29:33;6.63;;;5.97;;
1471;SDS011;963;42.644;23.336;2023-08-21T02:31:59;7.00;;;6.30;;
1471;SDS011;963;42.644;23.336;2023-08-21T02:34:24;10.83;;;5.93;;
1471;SDS011;963;42.644;23.336;2023-08-21T02:36:50;6.50;;;5.63;;
1471;SDS011;963;42.644;23.336;2023-08-21T02:39:15;8.43;;;6.00;;
1471;SDS011;963;42.644;23.336;2023-08-21T02:41:40;10.40;;;6.40;;
1471;SDS011;963;42.644;23.336;2023-08-21T02:44:06;6.73;;;6.10;;
1471;SDS011;963;42.644;23.336;2023-08-21T02:46:31;9.80;;;7.30;;
1471;SDS011;963;42.644;23.336;2023-08-21T02:48:59;7.43;;;6.60;;
1471;SDS011;963;42.644;23.336;2023-08-21T02:51:24;6.90;;;6.30;;
1471;SDS011;963;42.644;23.336;2023-08-21T02:53:50;6.43;;;5.83;;
1471;SDS011;963;42.644;23.336;2023-08-21T02:56:15;8.63;;;6.90;;
1471;SDS011;963;42.644;23.336;2023-08-21T02:58:40;8.93;;;6.50;;
1471;SDS011;963;42.644;23.336;2023-08-21T03:01:06;7.80;;;6.90;;
1471;SDS011;963;42.644;23.336;2023-08-21T03:03:31;10.43;;;6.93;;
1471;SDS011;963;42.644;23.336;2023-08-21T03:05:58;10.83;;;7.77;;
1471;SDS011;963;42.644;23.336;2023-08-21T03:08:24;9.90;;;7.93;;
1471;SDS011;963;42.644;23.336;2023-08-21T03:10:49;8.30;;;7.50;;
1471;SDS011;963;42.644;23.336;2023-08-21T03:13:15;9.13;;;7.37;;
1471;SDS011;963;42.644;23.336;2023-08-21T03:15:40;16.70;;;7.40;;
1471;SDS011;963;42.644;23.336;2023-08-21T03:18:06;9.47;;;7.60;;
1471;SDS011;963;42.644;23.336;2023-08-21T03:20:31;8.73;;;7.93;;
1471;SDS011;963;42.644;23.336;2023-08-21T03:22:56;11.60;;;7.87;;
1471;SDS011;963;42.644;23.336;2023-08-21T03:25:22;10.73;;;8.00;;
1471;SDS011;963;42.644;23.336;2023-08-21T03:27:47;9.30;;;8.33;;
1471;SDS011;963;42.644;23.336;2023-08-21T03:30:14;12.33;;;9.43;;
1471;SDS011;963;42.644;23.336;2023-08-21T03:32:40;13.87;;;9.20;;
1471;SDS011;963;42.644;23.336;2023-08-21T03:35:06;9.53;;;8.33;;
1471;SDS011;963;42.644;23.336;2023-08-21T03:37:31;9.53;;;8.53;;
1471;SDS011;963;42.644;23.336;2023-08-21T03:39:57;14.33;;;8.63;;
1471;SDS011;963;42.644;23.336;2023-08-21T03:42:22;12.63;;;8.60;;
1471;SDS011;963;42.644;23.336;2023-08-21T03:44:48;16.70;;;8.80;;
1471;SDS011;963;42.644;23.336;2023-08-21T03:47:15;11.37;;;7.93;;
1471;SDS011;963;42.644;23.336;2023-08-21T03:49:41;9.20;;;7.27;;
1471;SDS011;963;42.644;23.336;2023-08-21T03:52:07;9.50;;;7.50;;
1471;SDS011;963;42.644;23.336;2023-08-21T03:54:32;11.40;;;7.77;;
1471;SDS011;963;42.644;23.336;2023-08-21T03:56:57;11.90;;;7.83;;
1471;SDS011;963;42.644;23.336;2023-08-21T03:59:23;8.37;;;7.33;;
1471;SDS011;963;42.644;23.336;2023-08-21T04:01:52;11.70;;;7.80;;
1471;SDS011;963;42.644;23.336;2023-08-21T04:04:17;14.03;;;8.10;;
1471;SDS011;963;42.644;23.336;2023-08-21T04:06:43;8.80;;;7.90;;
1471;SDS011;963;42.644;23.336;2023-08-21T04:09:08;11.00;;;8.40;;
1471;SDS011;963;42.644;23.336;2023-08-21T04:11:34;9.07;;;7.53;;
1471;SDS011;963;42.644;23.336;2023-08-21T04:14:00;12.20;;;8.30;;
1471;SDS011;963;42.644;23.336;2023-08-21T04:16:26;7.90;;;6.73;;
1471;SDS011;963;42.644;23.336;2023-08-21T04:18:53;10.83;;;8.50;;
1471;SDS011;963;42.644;23.336;2023-08-21T04:21:18;12.77;;;8.03;;
1471;SDS011;963;42.644;23.336;2023-08-21T04:23:44;10.77;;;8.40;;
1471;SDS011;963;42.644;23.336;2023-08-21T04:26:10;9.57;;;8.20;;
1471;SDS011;963;42.644;23.336;2023-08-21T04:28:35;11.03;;;7.80;;
1471;SDS011;963;42.644;23.336;2023-08-21T04:31:03;10.93;;;7.63;;
1471;SDS011;963;42.644;23.336;2023-08-21T04:33:30;9.37;;;7.67;;
1471;SDS011;963;42.644;23.336;2023-08-21T04:35:57;9.30;;;8.40;;
1471;SDS011;963;42.644;23.336;2023-08-21T04:38:22;9.80;;;8.30;;
1471;SDS011;963;42.644;23.336;2023-08-21T04:40:48;10.00;;;8.03;;
1471;SDS011;963;42.644;23.336;2023-08-21T04:43:13;9.27;;;8.37;;
1471;SDS011;963;42.644;23.336;2023-08-21T04:45:45;12.43;;;9.23;;
1471;SDS011;963;42.644;23.336;2023-08-21T04:48:15;11.23;;;8.50;;
1471;SDS011;963;42.644;23.336;2023-08-21T04:50:40;9.20;;;8.20;;
1471;SDS011;963;42.644;23.336;2023-08-21T04:53:06;11.13;;;8.70;;
1471;SDS011;963;42.644;23.336;2023-08-21T04:55:31;15.20;;;8.90;;
1471;SDS011;963;42.644;23.336;2023-08-21T04:57:57;9.03;;;8.00;;
1471;SDS011;963;42.644;23.336;2023-08-21T05:00:22;11.13;;;8.23;;
1471;SDS011;963;42.644;23.336;2023-08-21T05:02:47;14.03;;;8.57;;
1471;SDS011;963;42.644;23.336;2023-08-21T05:05:13;10.60;;;8.47;;
1471;SDS011;963;42.644;23.336;2023-08-21T05:07:38;14.07;;;9.00;;
1471;SDS011;963;42.644;23.336;2023-08-21T05:10:04;15.57;;;8.87;;
1471;SDS011;963;42.644;23.336;2023-08-21T05:12:30;13.20;;;8.63;;
1471;SDS011;963;42.644;23.336;2023-08-21T05:14:55;10.10;;;8.00;;
1471;SDS011;963;42.644;23.336;2023-08-21T05:17:20;10.30;;;8.63;;
1471;SDS011;963;42.644;23.336;2023-08-21T05:19:46;9.30;;;8.40;;
1471;SDS011;963;42.644;23.336;2023-08-21T05:22:11;8.90;;;7.97;;
1471;SDS011;963;42.644;23.336;2023-08-21T05:24:37;9.10;;;7.33;;
1471;SDS011;963;42.644;23.336;2023-08-21T05:27:03;13.00;;;9.80;;
1471;SDS011;963;42.644;23.336;2023-08-21T05:29:29;10.87;;;9.17;;
1471;SDS011;963;42.644;23.336;2023-08-21T05:31:55;12.50;;;8.40;;
1471;SDS011;963;42.644;23.336;2023-08-21T05:34:20;9.70;;;8.50;;
1471;SDS011;963;42.644;23.336;2023-08-21T05:36:46;14.77;;;8.43;;
1471;SDS011;963;42.644;23.336;2023-08-21T05:39:11;16.13;;;8.40;;
1471;SDS011;963;42.644;23.336;2023-08-21T05:41:36;15.03;;;9.33;;
1471;SDS011;963;42.644;23.336;2023-08-21T05:44:02;11.93;;;8.13;;
1471;SDS011;963;42.644;23.336;2023-08-21T05:46:27;11.97;;;9.20;;
1471;SDS011;963;42.644;23.336;2023-08-21T05:48:53;10.60;;;9.60;;
1471;SDS011;963;42.644;23.336;2023-08-21T05:51:18;15.27;;;8.87;;
1471;SDS011;963;42.644;23.336;2023-08-21T05:53:43;11.70;;;8.97;;
1471;SDS011;963;42.644;23.336;2023-08-21T05:56:09;12.23;;;9.40;;
1471;SDS011;963;42.644;23.336;2023-08-21T05:58:34;10.30;;;9.20;;
1471;SDS011;963;42.644;23.336;2023-08-21T06:01:00;12.30;;;9.17;;
1471;SDS011;963;42.644;23.336;2023-08-21T06:03:25;12.60;;;9.27;;
1471;SDS011;963;42.644;23.336;2023-08-21T06:05:51;12.80;;;8.87;;
1471;SDS011;963;42.644;23.336;2023-08-21T06:08:16;10.17;;;8.40;;
1471;SDS011;963;42.644;23.336;2023-08-21T06:10:43;9.80;;;8.40;;
1471;SDS011;963;42.644;23.336;2023-08-21T06:13:08;10.17;;;9.03;;
1471;SDS011;963;42.644;23.336;2023-08-21T06:15:34;13.63;;;9.23;;
1471;SDS011;963;42.644;23.336;2023-08-21T06:17:59;14.00;;;8.70;;
1471;SDS011;963;42.644;23.336;2023-08-21T06:20:25;18.37;;;9.23;;
1471;SDS011;963;42.644;23.336;2023-08-21T06:22:51;10.33;;;9.03;;
1471;SDS011;963;42.644;23.336;2023-08-21T06:25:16;14.50;;;9.70;;
1471;SDS011;963;42.644;23.336;2023-08-21T06:27:44;12.10;;;8.17;;
1471;SDS011;963;42.644;23.336;2023-08-21T06:30:09;11.00;;;7.93;;
1471;SDS011;963;42.644;23.336;2023-08-21T06:32:35;11.30;;;8.47;;
1471;SDS011;963;42.644;23.336;2023-08-21T06:35:00;19.33;;;9.30;;
1471;SDS011;963;42.644;23.336;2023-08-21T06:37:26;17.80;;;9.90;;
1471;SDS011;963;42.644;23.336;2023-08-21T06:39:51;13.57;;;8.60;;
1471;SDS011;963;42.644;23.336;2023-08-21T06:42:17;16.00;;;8.87;;
1471;SDS011;963;42.644;23.336;2023-08-21T06:44:42;14.80;;;8.87;;
1471;SDS011;963;42.644;23.336;2023-08-21T06:47:08;20.10;;;9.47;;
1471;SDS011;963;42.644;23.336;2023-08-21T06:49:33;12.27;;;7.10;;
1471;SDS011;963;42.644;23.336;2023-08-21T06:51:58;11.47;;;7.70;;
1471;SDS011;963;42.644;23.336;2023-08-21T06:54:24;9.80;;;8.30;;
1471;SDS011;963;42.644;23.336;2023-08-21T06:56:49;15.10;;;8.30;;
1471;SDS011;963;42.644;23.336;2023-08-21T06:59:15;12.07;;;8.00;;
1471;SDS011;963;42.644;23.336;2023-08-21T07:01:40;13.30;;;7.13;;
1471;SDS011;963;42.644;23.336;2023-08-21T07:04:06;12.90;;;7.30;;
1471;SDS011;963;42.644;23.336;2023-08-21T07:06:31;16.97;;;9.53;;
1471;SDS011;963;42.644;23.336;2023-08-21T07:08:57;16.10;;;9.07;;
1471;SDS011;963;42.644;23.336;2023-08-21T07:11:22;10.60;;;7.77;;
1471;SDS011;963;42.644;23.336;2023-08-21T07:13:48;10.10;;;7.80;;
1471;SDS011;963;42.644;23.336;2023-08-21T07:16:14;8.17;;;7.37;;
1471;SDS011;963;42.644;23.336;2023-08-21T07:18:39;9.40;;;6.90;;
1471;SDS011;963;42.644;23.336;2023-08-21T07:21:04;9.60;;;6.33;;
1471;SDS011;963;42.644;23.336;2023-08-21T07:23:30;7.27;;;6.50;;
1471;SDS011;963;42.644;23.336;2023-08-21T07:25:57;10.37;;;7.60;;
1471;SDS011;963;42.644;23.336;2023-08-21T07:28:23;10.43;;;6.20;;
1471;SDS011;963;42.644;23.336;2023-08-21T07:30:54;9.00;;;6.50;;
1471;SDS011;963;42.644;23.336;2023-08-21T07:33:20;9.07;;;6.40;;
1471;SDS011;963;42.644;23.336;2023-08-21T07:35:45;8.80;;;7.00;;
1471;SDS011;963;42.644;23.336;2023-08-21T07:38:11;10.27;;;6.40;;
1471;SDS011;963;42.644;23.336;2023-08-21T07:40:36;10.47;;;6.90;;
1471;SDS011;963;42.644;23.336;2023-08-21T07:43:02;7.73;;;6.80;;
1471;SDS011;963;42.644;23.336;2023-08-21T07:45:27;9.33;;;5.80;;
1471;SDS011;963;42.644;23.336;2023-08-21T07:47:52;11.33;;;6.13;;
1471;SDS011;963;42.644;23.336;2023-08-21T07:50:18;10.97;;;6.67;;
1471;SDS011;963;42.644;23.336;2023-08-21T07:52:43;6.33;;;5.73;;
1471;SDS011;963;42.644;23.336;2023-08-21T07:55:09;11.90;;;6.60;;
1471;SDS011;963;42.644;23.336;2023-08-21T07:57:34;8.10;;;5.67;;
1471;SDS011;963;42.644;23.336;2023-08-21T08:00:00;6.90;;;6.20;;
1471;SDS011;963;42.644;23.336;2023-08-21T08:02:25;12.03;;;6.50;;
1471;SDS011;963;42.644;23.336;2023-08-21T08:04:51;7.00;;;6.00;;
1471;SDS011;963;42.644;23.336;2023-08-21T08:07:16;9.17;;;6.53;;
1471;SDS011;963;42.644;23.336;2023-08-21T08:09:41;11.33;;;6.83;;
1471;SDS011;963;42.644;23.336;2023-08-21T08:12:07;15.17;;;11.53;;
1471;SDS011;963;42.644;23.336;2023-08-21T08:14:33;17.30;;;11.07;;
1471;SDS011;963;42.644;23.336;2023-08-21T08:16:58;10.93;;;6.30;;
1471;SDS011;963;42.644;23.336;2023-08-21T08:19:24;7.63;;;5.90;;
1471;SDS011;963;42.644;23.336;2023-08-21T08:21:49;7.67;;;5.70;;
1471;SDS011;963;42.644;23.336;2023-08-21T08:24:14;9.37;;;6.20;;
1471;SDS011;963;42.644;23.336;2023-08-21T08:26:40;9.47;;;6.20;;
1471;SDS011;963;42.644;23.336;2023-08-21T08:29:07;8.27;;;5.50;;
1471;SDS011;963;42.644;23.336;2023-08-21T08:31:32;7.73;;;6.43;;
1471;SDS011;963;42.644;23.336;2023-08-21T08:33:58;6.40;;;5.57;;
1471;SDS011;963;42.644;23.336;2023-08-21T08:36:23;6.23;;;5.63;;
1471;SDS011;963;42.644;23.336;2023-08-21T08:38:49;7.70;;;5.97;;
1471;SDS011;963;42.644;23.336;2023-08-21T08:41:30;7.10;;;5.83;;
1471;SDS011;963;42.644;23.336;2023-08-21T08:44:03;10.00;;;5.73;;
1471;SDS011;963;42.644;23.336;2023-08-21T08:46:29;7.33;;;5.80;;
1471;SDS011;963;42.644;23.336;2023-08-21T08:48:56;8.80;;;6.93;;
1471;SDS011;963;42.644;23.336;2023-08-21T08:51:22;12.07;;;6.17;;
1471;SDS011;963;42.644;23.336;2023-08-21T08:53:50;6.97;;;6.17;;
1471;SDS011;963;42.644;23.336;2023-08-21T08:56:15;8.60;;;5.70;;
1471;SDS011;963;42.644;23.336;2023-08-21T08:58:41;10.60;;;7.00;;
1471;SDS011;963;42.644;23.336;2023-08-21T09:01:08;7.07;;;5.87;;
1471;SDS011;963;42.644;23.336;2023-08-21T09:03:35;6.63;;;5.93;;
1471;SDS011;963;42.644;23.336;2023-08-21T09:06:01;10.53;;;6.10;;
1471;SDS011;963;42.644;23.336;2023-08-21T09:08:28;6.57;;;5.80;;
1471;SDS011;963;42.644;23.336;2023-08-21T09:10:54;6.43;;;5.73;;
1471;SDS011;963;42.644;23.336;2023-08-21T09:13:20;12.17;;;6.70;;
1471;SDS011;963;42.644;23.336;2023-08-21T09:15:46;6.87;;;5.60;;
1471;SDS011;963;42.644;23.336;2023-08-21T09:18:13;10.87;;;6.47;;
1471;SDS011;963;42.644;23.336;2023-08-21T09:20:40;8.00;;;5.73;;
1471;SDS011;963;42.644;23.336;2023-08-21T09:23:06;8.97;;;5.33;;
1471;SDS011;963;42.644;23.336;2023-08-21T09:25:38;7.33;;;6.03;;
1471;SDS011;963;42.644;23.336;2023-08-21T09:28:07;15.10;;;6.80;;
1471;SDS011;963;42.644;23.336;2023-08-21T09:33:28;6.30;;;5.70;;
1471;SDS011;963;42.644;23.336;2023-08-21T09:35:54;8.70;;;6.00;;
1471;SDS011;963;42.644;23.336;2023-08-21T09:38:21;8.60;;;6.40;;
1471;SDS011;963;42.644;23.336;2023-08-21T09:40:50;8.43;;;5.40;;
1471;SDS011;963;42.644;23.336;2023-08-21T09:43:17;7.73;;;5.20;;
1471;SDS011;963;42.644;23.336;2023-08-21T09:45:55;8.30;;;5.30;;
1471;SDS011;963;42.644;23.336;2023-08-21T09:48:26;8.87;;;5.90;;
1471;SDS011;963;42.644;23.336;2023-08-21T09:50:52;7.77;;;4.70;;
1471;SDS011;963;42.644;23.336;2023-08-21T09:53:20;6.00;;;4.83;;
1471;SDS011;963;42.644;23.336;2023-08-21T09:55:47;5.63;;;5.07;;
1471;SDS011;963;42.644;23.336;2023-08-21T09:58:17;8.53;;;5.53;;
1471;SDS011;963;42.644;23.336;2023-08-21T10:00:44;8.07;;;5.30;;
1471;SDS011;963;42.644;23.336;2023-08-21T10:03:09;9.07;;;5.87;;
1471;SDS011;963;42.644;23.336;2023-08-21T10:05:36;6.80;;;5.30;;
1471;SDS011;963;42.644;23.336;2023-08-21T10:08:03;7.40;;;5.13;;
1471;SDS011;963;42.644;23.336;2023-08-21T10:10:39;6.77;;;5.10;;
1471;SDS011;963;42.644;23.336;2023-08-21T10:13:05;6.40;;;4.50;;
1471;SDS011;963;42.644;23.336;2023-08-21T10:15:32;6.80;;;5.17;;
1471;SDS011;963;42.644;23.336;2023-08-21T10:18:00;10.30;;;5.50;;
1471;SDS011;963;42.644;23.336;2023-08-21T10:20:47;7.67;;;5.37;;
1471;SDS011;963;42.644;23.336;2023-08-21T10:23:26;9.00;;;5.23;;
1471;SDS011;963;42.644;23.336;2023-08-21T10:25:56;6.67;;;5.40;;
1471;SDS011;963;42.644;23.336;2023-08-21T10:28:23;6.03;;;5.43;;
1471;SDS011;963;42.644;23.336;2023-08-21T10:30:48;6.00;;;5.07;;
1471;SDS011;963;42.644;23.336;2023-08-21T10:33:14;6.47;;;5.20;;
1471;SDS011;963;42.644;23.336;2023-08-21T10:35:39;7.93;;;4.83;;
1471;SDS011;963;42.644;23.336;2023-08-21T10:40:36;5.90;;;5.27;;
1471;SDS011;963;42.644;23.336;2023-08-21T10:43:02;9.80;;;5.20;;
1471;SDS011;963;42.644;23.336;2023-08-21T10:45:28;8.10;;;5.03;;
1471;SDS011;963;42.644;23.336;2023-08-21T10:48:03;7.40;;;5.27;;
1471;SDS011;963;42.644;23.336;2023-08-21T10:50:29;5.53;;;4.97;;
1471;SDS011;963;42.644;23.336;2023-08-21T10:52:54;8.30;;;4.97;;
1471;SDS011;963;42.644;23.336;2023-08-21T10:55:20;11.87;;;5.20;;
1471;SDS011;963;42.644;23.336;2023-08-21T10:57:48;7.83;;;5.27;;
1471;SDS011;963;42.644;23.336;2023-08-21T11:00:18;7.70;;;5.40;;
1471;SDS011;963;42.644;23.336;2023-08-21T11:02:45;9.73;;;5.60;;
1471;SDS011;963;42.644;23.336;2023-08-21T11:05:11;7.50;;;5.23;;
1471;SDS011;963;42.644;23.336;2023-08-21T11:07:39;9.10;;;5.40;;
1471;SDS011;963;42.644;23.336;2023-08-21T11:10:06;10.10;;;5.77;;
1471;SDS011;963;42.644;23.336;2023-08-21T11:12:37;7.73;;;4.83;;
1471;SDS011;963;42.644;23.336;2023-08-21T11:15:02;10.20;;;5.07;;
1471;SDS011;963;42.644;23.336;2023-08-21T11:17:29;7.60;;;5.10;;
1471;SDS011;963;42.644;23.336;2023-08-21T11:19:54;7.60;;;5.03;;
1471;SDS011;963;42.644;23.336;2023-08-21T11:22:25;7.00;;;5.30;;
1471;SDS011;963;42.644;23.336;2023-08-21T11:24:53;5.47;;;4.50;;
1471;SDS011;963;42.644;23.336;2023-08-21T11:27:19;6.20;;;5.20;;
1471;SDS011;963;42.644;23.336;2023-08-21T11:29:45;10.23;;;5.40;;
1471;SDS011;963;42.644;23.336;2023-08-21T11:32:30;12.07;;;5.50;;
1471;SDS011;963;42.644;23.336;2023-08-21T11:34:56;13.93;;;5.50;;
1471;SDS011;963;42.644;23.336;2023-08-21T11:37:22;11.23;;;6.43;;
1471;SDS011;963;42.644;23.336;2023-08-21T11:39:50;6.10;;;4.73;;
1471;SDS011;963;42.644;23.336;2023-08-21T11:42:17;6.93;;;5.03;;
1471;SDS011;963;42.644;23.336;2023-08-21T11:44:44;7.63;;;5.07;;
1471;SDS011;963;42.644;23.336;2023-08-21T11:47:16;8.27;;;6.00;;
1471;SDS011;963;42.644;23.336;2023-08-21T11:49:43;8.93;;;5.80;;
1471;SDS011;963;42.644;23.336;2023-08-21T11:52:10;9.20;;;4.83;;
1471;SDS011;963;42.644;23.336;2023-08-21T11:54:37;8.07;;;5.30;;
1471;SDS011;963;42.644;23.336;2023-08-21T11:57:07;8.00;;;4.80;;
1471;SDS011;963;42.644;23.336;2023-08-21T11:59:33;6.23;;;4.80;;
1471;SDS011;963;42.644;23.336;2023-08-21T12:01:59;8.73;;;5.30;;
1471;SDS011;963;42.644;23.336;2023-08-21T12:04:26;7.17;;;5.23;;
1471;SDS011;963;42.644;23.336;2023-08-21T12:06:52;7.43;;;4.53;;
1471;SDS011;963;42.644;23.336;2023-08-21T12:09:18;4.97;;;4.47;;
1471;SDS011;963;42.644;23.336;2023-08-21T12:11:44;6.23;;;4.83;;
1471;SDS011;963;42.644;23.336;2023-08-21T12:14:10;5.13;;;4.63;;
1471;SDS011;963;42.644;23.336;2023-08-21T12:16:36;8.27;;;4.30;;
1471;SDS011;963;42.644;23.336;2023-08-21T12:19:02;6.50;;;4.50;;
1471;SDS011;963;42.644;23.336;2023-08-21T12:21:28;6.13;;;4.70;;
1471;SDS011;963;42.644;23.336;2023-08-21T12:23:53;5.33;;;4.83;;
1471;SDS011;963;42.644;23.336;2023-08-21T12:26:19;5.17;;;4.67;;
1471;SDS011;963;42.644;23.336;2023-08-21T12:28:48;8.20;;;4.93;;
1471;SDS011;963;42.644;23.336;2023-08-21T12:31:14;8.40;;;4.80;;
1471;SDS011;963;42.644;23.336;2023-08-21T12:33:39;5.23;;;4.73;;
1471;SDS011;963;42.644;23.336;2023-08-21T12:36:04;9.73;;;4.77;;
1471;SDS011;963;42.644;23.336;2023-08-21T12:38:30;8.70;;;5.17;;
1471;SDS011;963;42.644;23.336;2023-08-21T12:40:56;4.80;;;4.27;;
1471;SDS011;963;42.644;23.336;2023-08-21T12:43:22;5.50;;;5.00;;
1471;SDS011;963;42.644;23.336;2023-08-21T12:45:47;6.67;;;4.30;;
1471;SDS011;963;42.644;23.336;2023-08-21T12:48:13;4.87;;;4.30;;
1471;SDS011;963;42.644;23.336;2023-08-21T12:50:38;4.77;;;4.10;;
1471;SDS011;963;42.644;23.336;2023-08-21T12:53:04;8.03;;;4.47;;
1471;SDS011;963;42.644;23.336;2023-08-21T12:55:29;5.07;;;4.57;;
1471;SDS011;963;42.644;23.336;2023-08-21T12:57:55;6.10;;;4.07;;
1471;SDS011;963;42.644;23.336;2023-08-21T13:00:21;7.43;;;4.60;;
1471;SDS011;963;42.644;23.336;2023-08-21T13:02:46;6.03;;;4.90;;
1471;SDS011;963;42.644;23.336;2023-08-21T13:05:12;9.03;;;4.70;;
1471;SDS011;963;42.644;23.336;2023-08-21T13:07:37;11.40;;;4.67;;
1471;SDS011;963;42.644;23.336;2023-08-21T13:10:03;5.50;;;4.87;;
1471;SDS011;963;42.644;23.336;2023-08-21T13:12:28;6.90;;;5.03;;
1471;SDS011;963;42.644;23.336;2023-08-21T13:14:54;8.40;;;4.90;;
1471;SDS011;963;42.644;23.336;2023-08-21T13:17:19;7.30;;;4.60;;
1471;SDS011;963;42.644;23.336;2023-08-21T13:19:45;7.03;;;4.70;;
1471;SDS011;963;42.644;23.336;2023-08-21T13:22:10;9.33;;;5.37;;
1471;SDS011;963;42.644;23.336;2023-08-21T13:24:35;5.63;;;4.33;;
1471;SDS011;963;42.644;23.336;2023-08-21T13:27:01;5.53;;;4.90;;
1471;SDS011;963;42.644;23.336;2023-08-21T13:29:26;5.30;;;4.80;;
1471;SDS011;963;42.644;23.336;2023-08-21T13:31:52;5.30;;;4.80;;
1471;SDS011;963;42.644;23.336;2023-08-21T13:34:17;4.73;;;4.27;;
1471;SDS011;963;42.644;23.336;2023-08-21T13:36:42;7.33;;;4.83;;
1471;SDS011;963;42.644;23.336;2023-08-21T13:39:08;7.50;;;4.80;;
1471;SDS011;963;42.644;23.336;2023-08-21T13:41:36;8.13;;;4.87;;
1471;SDS011;963;42.644;23.336;2023-08-21T13:44:01;5.33;;;4.30;;
1471;SDS011;963;42.644;23.336;2023-08-21T13:46:28;6.40;;;4.40;;
1471;SDS011;963;42.644;23.336;2023-08-21T13:48:53;6.70;;;4.90;;
1471;SDS011;963;42.644;23.336;2023-08-21T13:51:19;7.50;;;5.23;;
1471;SDS011;963;42.644;23.336;2023-08-21T13:53:44;7.27;;;4.67;;
1471;SDS011;963;42.644;23.336;2023-08-21T13:56:10;5.00;;;4.50;;
1471;SDS011;963;42.644;23.336;2023-08-21T13:58:35;11.30;;;5.30;;
1471;SDS011;963;42.644;23.336;2023-08-21T14:01:01;5.70;;;4.70;;
1471;SDS011;963;42.644;23.336;2023-08-21T14:03:26;6.60;;;4.53;;
1471;SDS011;963;42.644;23.336;2023-08-21T14:05:51;6.20;;;4.77;;
1471;SDS011;963;42.644;23.336;2023-08-21T14:08:17;6.53;;;4.90;;
1471;SDS011;963;42.644;23.336;2023-08-21T14:10:42;7.03;;;4.60;;
1471;SDS011;963;42.644;23.336;2023-08-21T14:13:08;5.77;;;4.73;;
1471;SDS011;963;42.644;23.336;2023-08-21T14:15:34;8.23;;;4.90;;
1471;SDS011;963;42.644;23.336;2023-08-21T14:17:59;6.73;;;4.87;;
1471;SDS011;963;42.644;23.336;2023-08-21T14:20:25;8.20;;;5.70;;
1471;SDS011;963;42.644;23.336;2023-08-21T14:22:50;5.50;;;4.37;;
1471;SDS011;963;42.644;23.336;2023-08-21T14:25:16;4.60;;;4.20;;
1471;SDS011;963;42.644;23.336;2023-08-21T14:27:42;5.37;;;4.27;;
1471;SDS011;963;42.644;23.336;2023-08-21T14:30:08;5.10;;;4.60;;
1471;SDS011;963;42.644;23.336;2023-08-21T14:32:33;6.40;;;4.20;;
1471;SDS011;963;42.644;23.336;2023-08-21T14:34:59;4.97;;;4.47;;
1471;SDS011;963;42.644;23.336;2023-08-21T14:37:24;7.97;;;5.27;;
1471;SDS011;963;42.644;23.336;2023-08-21T14:39:50;7.10;;;5.03;;
1471;SDS011;963;42.644;23.336;2023-08-21T14:42:15;11.03;;;5.10;;
1471;SDS011;963;42.644;23.336;2023-08-21T14:44:40;5.77;;;4.77;;
1471;SDS011;963;42.644;23.336;2023-08-21T14:47:06;8.80;;;5.10;;
1471;SDS011;963;42.644;23.336;2023-08-21T14:49:31;15.97;;;6.50;;
1471;SDS011;963;42.644;23.336;2023-08-21T14:51:59;5.10;;;4.70;;
1471;SDS011;963;42.644;23.336;2023-08-21T14:54:25;6.13;;;4.83;;
1471;SDS011;963;42.644;23.336;2023-08-21T14:56:51;8.10;;;5.47;;
1471;SDS011;963;42.644;23.336;2023-08-21T14:59:16;10.00;;;5.00;;
1471;SDS011;963;42.644;23.336;2023-08-21T15:01:41;6.90;;;5.80;;
1471;SDS011;963;42.644;23.336;2023-08-21T15:04:07;7.00;;;5.00;;
1471;SDS011;963;42.644;23.336;2023-08-21T15:06:33;6.43;;;5.23;;
1471;SDS011;963;42.644;23.336;2023-08-21T15:08:59;6.03;;;5.43;;
1471;SDS011;963;42.644;23.336;2023-08-21T15:11:25;7.80;;;5.20;;
1471;SDS011;963;42.644;23.336;2023-08-21T15:13:51;9.43;;;6.03;;